createdAt,value
2018-12-20T00:00:49.853Z,24.37
2018-12-20T00:03:18.183Z,23.07
2018-12-20T00:05:46.422Z,22.67
2018-12-20T00:08:14.907Z,21.47
2018-12-20T00:10:43.278Z,22.13
2018-12-20T00:13:11.689Z,20.73
2018-12-20T00:15:40.177Z,20.53
2018-12-20T00:18:08.628Z,21.20
2018-12-20T00:20:36.947Z,20.83
2018-12-20T00:23:05.217Z,22.70
2018-12-20T00:25:33.700Z,21.63
2018-12-20T00:28:02.263Z,21.57
2018-12-20T00:30:30.517Z,23.70
2018-12-20T00:32:58.798Z,21.93
2018-12-20T00:35:27.396Z,21.13
2018-12-20T00:37:55.862Z,20.43
2018-12-20T00:40:24.399Z,20.90
2018-12-20T00:42:52.682Z,24.40
2018-12-20T00:45:20.970Z,24.60
2018-12-20T00:47:49.678Z,24.07
2018-12-20T00:50:18.109Z,21.90
2018-12-20T00:52:46.500Z,25.40
2018-12-20T00:55:14.891Z,24.30
2018-12-20T00:57:43.285Z,22.53
2018-12-20T01:00:11.890Z,22.73
2018-12-20T01:02:40.321Z,21.83
2018-12-20T01:05:08.750Z,26.00
2018-12-20T01:07:37.084Z,23.33
2018-12-20T01:10:05.605Z,23.33
2018-12-20T01:12:34.255Z,22.23
2018-12-20T01:15:02.652Z,22.57
2018-12-20T01:17:36.482Z,21.03
2018-12-20T01:20:05.095Z,21.90
2018-12-20T01:22:33.354Z,24.13
2018-12-20T01:25:01.789Z,23.30
2018-12-20T01:27:30.085Z,24.33
2018-12-20T01:29:58.362Z,25.13
2018-12-20T01:32:26.862Z,24.67
2018-12-20T01:34:55.290Z,28.60
2018-12-20T01:37:23.783Z,26.23
2018-12-20T01:39:52.117Z,25.37
2018-12-20T01:42:20.510Z,24.27
2018-12-20T01:44:53.479Z,26.93
2018-12-20T01:47:19.186Z,28.40
2018-12-20T01:49:47.509Z,30.10
2018-12-20T01:52:15.888Z,27.77
2018-12-20T01:54:44.237Z,28.87
2018-12-20T01:57:12.662Z,29.50
2018-12-20T01:59:41.168Z,27.00
2018-12-20T02:02:09.648Z,27.87
2018-12-20T02:04:37.998Z,25.67
2018-12-20T02:07:06.401Z,25.97
2018-12-20T02:09:34.799Z,29.07
2018-12-20T02:12:03.335Z,27.40
2018-12-20T02:14:31.663Z,30.17
2018-12-20T02:17:00.056Z,32.60
2018-12-20T02:19:28.412Z,26.67
2018-12-20T02:24:50.152Z,27.53
2018-12-20T02:27:18.698Z,27.13
2018-12-20T02:29:47.166Z,24.00
2018-12-20T02:32:15.571Z,26.13
2018-12-20T02:34:43.868Z,24.23
2018-12-20T02:37:12.231Z,31.73
2018-12-20T02:39:40.588Z,26.93
2018-12-20T02:42:09.001Z,29.10
2018-12-20T02:44:37.437Z,30.70
2018-12-20T02:47:05.823Z,29.70
2018-12-20T02:49:34.219Z,31.37
2018-12-20T02:52:02.671Z,32.17
2018-12-20T02:54:30.932Z,29.67
2018-12-20T02:56:59.343Z,29.23
2018-12-20T02:59:27.772Z,33.83
2018-12-20T03:01:56.092Z,32.53
2018-12-20T03:04:24.692Z,32.17
2018-12-20T03:06:53.168Z,31.53
2018-12-20T03:09:21.451Z,30.10
2018-12-20T03:11:49.763Z,34.63
2018-12-20T03:14:18.183Z,27.90
2018-12-20T03:16:46.415Z,31.63
2018-12-20T03:19:14.669Z,33.60
2018-12-20T03:21:43.090Z,28.83
2018-12-20T03:24:11.593Z,32.03
2018-12-20T03:26:40.076Z,31.83
2018-12-20T03:29:08.600Z,29.50
2018-12-20T03:31:37.174Z,31.17
2018-12-20T03:34:05.573Z,28.13
2018-12-20T03:36:33.904Z,31.13
2018-12-20T03:39:02.198Z,34.10
2018-12-20T03:41:30.564Z,30.73
2018-12-20T03:43:58.858Z,28.97
2018-12-20T03:46:27.395Z,33.60
2018-12-20T03:48:55.797Z,31.80
2018-12-20T03:51:24.622Z,31.47
2018-12-20T03:53:53.135Z,32.70
2018-12-20T03:56:21.634Z,28.17
2018-12-20T03:58:49.859Z,29.43
2018-12-20T04:01:18.341Z,30.70
2018-12-20T04:03:46.762Z,35.03
2018-12-20T04:06:15.145Z,30.03
2018-12-20T04:08:43.501Z,30.57
2018-12-20T04:11:12.026Z,32.67
2018-12-20T04:13:40.442Z,30.13
2018-12-20T04:16:08.895Z,31.60
2018-12-20T04:18:37.331Z,28.40
2018-12-20T04:21:05.582Z,33.43
2018-12-20T04:23:33.931Z,30.40
2018-12-20T04:26:02.206Z,35.53
2018-12-20T04:28:30.458Z,35.67
2018-12-20T04:30:58.914Z,34.47
2018-12-20T04:33:27.524Z,38.67
2018-12-20T04:35:55.977Z,37.40
2018-12-20T04:38:24.491Z,39.23
2018-12-20T04:40:52.853Z,32.40
2018-12-20T04:43:28.036Z,33.03
2018-12-20T04:45:56.323Z,35.07
2018-12-20T04:48:24.799Z,36.90
2018-12-20T04:50:53.428Z,31.63
2018-12-20T04:53:21.960Z,29.40
2018-12-20T04:55:50.511Z,31.90
2018-12-20T04:58:18.897Z,34.87
2018-12-20T05:00:47.299Z,33.90
2018-12-20T05:03:15.693Z,34.33
2018-12-20T05:05:44.399Z,32.60
2018-12-20T05:08:12.862Z,34.93
2018-12-20T05:10:41.147Z,30.80
2018-12-20T05:13:09.417Z,36.87
2018-12-20T05:15:37.741Z,34.83
2018-12-20T05:18:06.040Z,34.60
2018-12-20T05:20:34.543Z,35.17
2018-12-20T05:23:03.255Z,40.07
2018-12-20T05:25:31.678Z,40.07
2018-12-20T05:28:00.307Z,35.33
2018-12-20T05:30:28.523Z,37.53
2018-12-20T05:32:56.798Z,41.13
2018-12-20T05:35:25.545Z,40.57
2018-12-20T05:37:54.012Z,38.43
2018-12-20T05:40:22.405Z,41.60
2018-12-20T05:42:50.681Z,38.80
2018-12-20T05:45:19.036Z,38.53
2018-12-20T05:47:47.331Z,38.63
2018-12-20T05:50:15.628Z,37.63
2018-12-20T05:52:44.031Z,33.27
2018-12-20T05:55:12.326Z,36.67
2018-12-20T05:57:40.574Z,39.50
2018-12-20T06:00:09.552Z,37.87
2018-12-20T06:02:37.919Z,36.37
2018-12-20T06:05:06.867Z,36.93
2018-12-20T06:07:35.189Z,38.33
2018-12-20T06:10:03.609Z,39.60
2018-12-20T06:12:32.144Z,40.50
2018-12-20T06:15:00.462Z,38.23
2018-12-20T06:17:29.041Z,39.10
2018-12-20T06:19:57.573Z,43.03
2018-12-20T06:22:25.925Z,40.67
2018-12-20T06:24:54.453Z,40.17
2018-12-20T06:27:22.786Z,40.37
2018-12-20T06:29:51.012Z,43.47
2018-12-20T06:32:19.347Z,37.50
2018-12-20T06:34:47.578Z,36.07
2018-12-20T06:37:15.817Z,36.40
2018-12-20T06:39:50.566Z,37.83
2018-12-20T06:42:18.784Z,43.90
2018-12-20T06:44:47.048Z,38.53
2018-12-20T06:47:15.294Z,36.83
2018-12-20T06:49:43.508Z,39.33
2018-12-20T06:52:11.763Z,38.60
2018-12-20T06:54:39.968Z,42.50
2018-12-20T06:57:08.176Z,44.53
2018-12-20T06:59:36.409Z,43.10
2018-12-20T07:02:05.066Z,38.17
2018-12-20T07:04:33.306Z,37.97
2018-12-20T07:07:01.580Z,38.97
2018-12-20T07:09:29.950Z,36.27
2018-12-20T07:11:58.176Z,39.47
2018-12-20T07:14:26.420Z,42.97
2018-12-20T07:16:54.678Z,40.83
2018-12-20T07:19:22.927Z,41.67
2018-12-20T07:21:51.215Z,50.53
2018-12-20T07:24:19.444Z,41.20
2018-12-20T07:26:47.687Z,41.73
2018-12-20T07:29:15.942Z,40.50
2018-12-20T07:31:56.356Z,38.77
2018-12-20T07:34:24.577Z,41.73
2018-12-20T07:36:52.798Z,40.67
2018-12-20T07:39:21.037Z,41.00
2018-12-20T07:41:49.468Z,43.90
2018-12-20T07:44:17.809Z,41.37
2018-12-20T07:46:46.269Z,49.23
2018-12-20T07:49:14.731Z,47.33
2018-12-20T07:51:43.030Z,44.27
2018-12-20T07:54:11.651Z,44.53
2018-12-20T07:56:40.127Z,46.80
2018-12-20T07:59:08.524Z,47.57
2018-12-20T08:01:36.892Z,45.30
2018-12-20T08:04:05.203Z,45.77
2018-12-20T08:06:33.578Z,46.93
2018-12-20T08:09:01.907Z,48.77
2018-12-20T08:11:30.239Z,48.67
2018-12-20T08:13:58.480Z,45.27
2018-12-20T08:16:26.771Z,47.77
2018-12-20T08:18:55.025Z,46.33
2018-12-20T08:21:23.224Z,47.17
2018-12-20T08:23:51.478Z,46.83
2018-12-20T08:26:19.819Z,48.33
2018-12-20T08:28:48.190Z,39.97
2018-12-20T08:31:16.425Z,43.47
2018-12-20T08:33:44.746Z,45.07
2018-12-20T08:36:13.011Z,42.67
2018-12-20T08:38:41.197Z,42.13
2018-12-20T08:41:09.434Z,44.50
2018-12-20T08:43:37.717Z,48.80
2018-12-20T08:46:05.993Z,46.97
2018-12-20T08:48:34.234Z,45.73
2018-12-20T08:51:02.576Z,44.43
2018-12-20T08:53:30.883Z,49.60
2018-12-20T08:55:59.080Z,41.90
2018-12-20T08:58:27.330Z,48.00
2018-12-20T09:00:55.707Z,49.67
2018-12-20T09:03:23.988Z,45.57
2018-12-20T09:05:52.334Z,44.47
2018-12-20T09:08:20.548Z,42.77
2018-12-20T09:10:48.775Z,42.77
2018-12-20T09:13:17.029Z,45.40
2018-12-20T09:15:45.354Z,46.63
2018-12-20T09:18:13.636Z,47.30
2018-12-20T09:20:41.916Z,47.43
2018-12-20T09:23:10.118Z,47.03
2018-12-20T09:25:38.372Z,46.77
2018-12-20T09:28:06.674Z,46.97
2018-12-20T09:30:34.947Z,40.60
2018-12-20T09:33:03.194Z,44.37
2018-12-20T09:35:31.530Z,40.93
2018-12-20T09:38:01.048Z,42.83
2018-12-20T09:40:29.537Z,45.80
2018-12-20T09:42:57.770Z,39.37
2018-12-20T09:45:26.045Z,44.37
2018-12-20T09:47:58.552Z,44.70
2018-12-20T09:50:26.950Z,38.70
2018-12-20T09:52:55.197Z,43.60
2018-12-20T09:55:23.442Z,42.43
2018-12-20T09:57:51.689Z,42.93
2018-12-20T10:00:19.945Z,45.83
2018-12-20T10:02:48.201Z,44.50
2018-12-20T10:05:16.796Z,44.43
2018-12-20T10:07:45.002Z,46.17
2018-12-20T10:10:13.304Z,45.37
2018-12-20T10:12:41.564Z,48.33
2018-12-20T10:15:09.842Z,47.17
2018-12-20T10:17:38.052Z,45.43
2018-12-20T10:20:08.969Z,43.30
2018-12-20T10:22:37.199Z,43.20
2018-12-20T10:25:05.684Z,43.73
2018-12-20T10:27:34.064Z,46.63
2018-12-20T10:30:02.450Z,43.13
2018-12-20T10:32:30.710Z,44.77
2018-12-20T10:34:58.944Z,44.53
2018-12-20T10:37:27.202Z,47.13
2018-12-20T10:39:55.460Z,42.97
2018-12-20T10:42:23.702Z,44.47
2018-12-20T10:44:52.052Z,48.10
2018-12-20T10:47:29.277Z,48.37
2018-12-20T10:49:56.033Z,48.33
2018-12-20T10:52:24.298Z,45.50
2018-12-20T10:54:52.714Z,47.80
2018-12-20T10:57:20.938Z,49.70
2018-12-20T10:59:49.216Z,43.60
2018-12-20T11:02:22.938Z,48.63
2018-12-20T11:04:56.543Z,45.43
2018-12-20T11:07:30.288Z,46.30
2018-12-20T11:10:03.898Z,47.43
2018-12-20T11:12:37.602Z,49.50
2018-12-20T11:15:06.951Z,48.47
2018-12-20T11:17:37.429Z,47.40
2018-12-20T11:20:05.866Z,45.63
2018-12-20T11:22:34.265Z,54.10
2018-12-20T11:25:02.498Z,45.10
2018-12-20T11:27:31.006Z,47.73
2018-12-20T11:29:59.306Z,44.90
2018-12-20T11:32:27.574Z,47.73
2018-12-20T11:34:55.783Z,45.50
2018-12-20T11:37:24.026Z,46.47
2018-12-20T11:39:59.370Z,43.50
2018-12-20T11:42:23.038Z,46.70
2018-12-20T11:44:51.284Z,47.47
2018-12-20T11:47:24.863Z,43.70
2018-12-20T11:49:53.094Z,43.60
2018-12-20T11:52:21.362Z,42.20
2018-12-20T11:54:49.642Z,46.10
2018-12-20T11:57:17.890Z,43.20
2018-12-20T11:59:46.131Z,46.33
2018-12-20T12:02:14.467Z,50.50
2018-12-20T12:04:42.727Z,44.63
2018-12-20T12:07:10.932Z,46.37
2018-12-20T12:09:39.191Z,42.13
2018-12-20T12:12:07.482Z,46.93
2018-12-20T12:14:35.778Z,46.40
2018-12-20T12:17:04.139Z,43.03
2018-12-20T12:19:32.346Z,45.47
2018-12-20T12:22:00.616Z,46.63
2018-12-20T12:24:28.952Z,48.70
2018-12-20T12:27:10.149Z,46.53
2018-12-20T12:29:38.439Z,42.93
2018-12-20T12:36:03.281Z,45.30
2018-12-20T12:38:31.595Z,42.90
2018-12-20T12:40:59.935Z,47.30
2018-12-20T12:43:28.185Z,45.17
2018-12-20T12:47:17.830Z,44.83
2018-12-20T12:49:46.155Z,46.37
2018-12-20T12:52:14.474Z,42.07
2018-12-20T12:54:43.200Z,43.77
2018-12-20T12:57:16.154Z,40.77
2018-12-20T12:59:44.369Z,44.47
2018-12-20T13:02:12.620Z,46.97
2018-12-20T13:04:40.884Z,44.30
2018-12-20T13:07:09.164Z,38.40
2018-12-20T13:09:37.389Z,41.80
2018-12-20T13:12:05.652Z,44.07
2018-12-20T13:14:34.132Z,44.20
2018-12-20T13:17:02.373Z,39.53
2018-12-20T13:19:30.594Z,48.83
2018-12-20T13:21:58.853Z,49.67
2018-12-20T13:24:27.134Z,48.80
2018-12-20T13:26:55.390Z,55.37
2018-12-20T13:29:23.654Z,47.93
2018-12-20T13:31:52.004Z,46.20
2018-12-20T13:34:20.228Z,40.27
2018-12-20T13:36:48.636Z,36.93
2018-12-20T13:42:09.847Z,34.77
2018-12-20T13:44:38.130Z,37.67
2018-12-20T13:47:06.362Z,35.33
2018-12-20T13:49:34.569Z,40.93
2018-12-20T13:52:02.922Z,48.13
2018-12-20T13:54:31.145Z,45.50
2018-12-20T13:56:59.365Z,34.50
2018-12-20T13:59:27.627Z,45.50
2018-12-20T14:01:55.888Z,41.77
2018-12-20T14:04:24.245Z,41.87
2018-12-20T14:06:52.522Z,38.03
2018-12-20T14:09:21.570Z,48.53
2018-12-20T14:11:53.222Z,40.93
2018-12-20T14:14:22.140Z,40.30
2018-12-20T14:16:51.106Z,33.37
2018-12-20T14:19:20.049Z,47.57
2018-12-20T14:21:48.974Z,34.90
2018-12-20T14:24:17.640Z,37.63
2018-12-20T14:26:46.002Z,32.60
2018-12-20T14:29:14.223Z,39.63
2018-12-20T14:31:42.509Z,40.37
2018-12-20T14:34:10.782Z,41.40
2018-12-20T14:36:39.220Z,36.87
2018-12-20T14:39:14.174Z,37.87
2018-12-20T14:41:42.401Z,36.33
2018-12-20T14:44:10.828Z,32.43
2018-12-20T14:46:39.065Z,36.60
2018-12-20T14:49:07.352Z,32.50
2018-12-20T14:54:28.763Z,35.50
2018-12-20T14:56:57.020Z,34.47
2018-12-20T14:59:25.594Z,33.87
2018-12-20T15:01:53.907Z,35.63
2018-12-20T15:04:22.205Z,27.40
2018-12-20T15:06:50.619Z,31.27
2018-12-20T15:09:18.920Z,30.17
2018-12-20T15:11:47.540Z,34.57
2018-12-20T15:14:16.163Z,33.13
2018-12-20T15:16:44.409Z,30.77
2018-12-20T15:19:12.751Z,30.83
2018-12-20T15:21:41.221Z,32.40
2018-12-20T15:24:09.930Z,27.67
2018-12-20T15:26:38.276Z,26.73
2018-12-20T15:29:06.609Z,29.03
2018-12-20T15:31:34.953Z,27.07
2018-12-20T15:34:03.223Z,28.80
2018-12-20T15:36:32.067Z,30.20
2018-12-20T15:39:00.401Z,34.67
2018-12-20T15:41:28.673Z,32.23
2018-12-20T15:43:56.938Z,34.00
2018-12-20T15:46:25.230Z,35.13
2018-12-20T15:48:57.679Z,32.00
2018-12-20T15:51:26.752Z,40.00
2018-12-20T15:53:55.256Z,27.07
2018-12-20T15:56:23.779Z,23.30
2018-12-20T15:58:52.030Z,28.73
2018-12-20T16:01:20.291Z,32.17
2018-12-20T16:03:48.666Z,28.17
2018-12-20T16:06:16.957Z,25.37
2018-12-20T16:08:45.690Z,24.43
2018-12-20T16:11:14.141Z,28.10
2018-12-20T16:13:42.422Z,30.37
2018-12-20T16:16:10.805Z,33.20
2018-12-20T16:18:39.147Z,29.40
2018-12-20T16:21:07.446Z,28.20
2018-12-20T16:23:35.724Z,31.47
2018-12-20T16:26:04.166Z,26.10
2018-12-20T16:28:32.471Z,31.27
2018-12-20T16:31:00.749Z,30.70
2018-12-20T16:33:29.156Z,32.63
2018-12-20T16:35:57.535Z,29.97
2018-12-20T16:38:25.937Z,27.20
2018-12-20T16:40:54.365Z,26.87
2018-12-20T16:43:22.651Z,27.13
2018-12-20T16:48:45.077Z,32.57
2018-12-20T16:51:14.752Z,31.07
2018-12-20T16:53:43.058Z,49.17
2018-12-20T16:56:11.520Z,41.47
2018-12-20T16:58:39.873Z,37.73
2018-12-20T17:01:08.193Z,29.47
2018-12-20T17:06:29.342Z,31.40
2018-12-20T17:11:50.706Z,33.80
2018-12-20T17:14:19.164Z,31.50
2018-12-20T17:16:54.450Z,28.27
2018-12-20T17:19:22.820Z,28.50
2018-12-20T17:24:44.736Z,27.33
2018-12-20T17:27:13.137Z,31.77
2018-12-20T17:29:42.594Z,27.23
2018-12-20T17:32:11.302Z,28.30
2018-12-20T17:34:40.110Z,32.53
2018-12-20T17:37:09.092Z,25.33
2018-12-20T17:39:38.382Z,31.20
2018-12-20T17:42:07.268Z,28.50
2018-12-20T17:44:35.603Z,31.17
2018-12-20T17:47:04.152Z,29.30
2018-12-20T17:49:32.568Z,28.40
2018-12-20T17:52:01.308Z,32.30
2018-12-20T17:54:29.791Z,30.80
2018-12-20T17:56:58.116Z,32.27
2018-12-20T17:59:26.645Z,37.53
2018-12-20T18:01:56.017Z,31.70
2018-12-20T18:04:24.294Z,33.87
2018-12-20T18:06:52.672Z,28.87
2018-12-20T18:09:20.928Z,29.10
2018-12-20T18:11:49.195Z,31.87
2018-12-20T18:14:18.563Z,27.93
2018-12-20T18:16:46.856Z,32.20
2018-12-20T18:19:15.139Z,28.40
2018-12-20T18:21:43.430Z,31.00
2018-12-20T18:24:11.699Z,34.53
2018-12-20T18:26:40.055Z,31.80
2018-12-20T18:29:08.379Z,30.37
2018-12-20T18:31:36.710Z,27.03
2018-12-20T18:34:04.996Z,26.10
2018-12-20T18:36:33.388Z,29.40
2018-12-20T18:39:01.688Z,28.13
2018-12-20T18:41:29.928Z,25.03
2018-12-20T18:43:58.255Z,28.67
2018-12-20T18:46:26.507Z,23.07
2018-12-20T18:48:54.795Z,38.30
2018-12-20T18:51:23.086Z,23.97
2018-12-20T18:53:51.507Z,28.27
2018-12-20T18:56:19.753Z,31.20
2018-12-20T18:58:48.243Z,51.97
2018-12-20T19:01:16.549Z,30.10
2018-12-20T19:03:44.872Z,42.83
2018-12-20T19:06:14.240Z,43.27
2018-12-20T19:08:42.657Z,39.63
2018-12-20T19:11:31.055Z,32.13
2018-12-20T19:13:59.338Z,49.90
2018-12-20T19:16:27.544Z,41.80
2018-12-20T19:18:55.779Z,73.27
2018-12-20T19:21:24.135Z,37.77
2018-12-20T19:23:53.385Z,31.77
2018-12-20T19:26:22.401Z,29.50
2018-12-20T19:28:50.686Z,23.87
2018-12-20T19:31:18.975Z,27.77
2018-12-20T19:33:47.285Z,30.87
2018-12-20T19:36:15.567Z,31.83
2018-12-20T19:38:44.181Z,29.30
2018-12-20T19:41:12.600Z,33.43
2018-12-20T19:43:40.982Z,31.03
2018-12-20T19:46:09.309Z,32.30
2018-12-20T19:48:37.661Z,28.83
2018-12-20T19:51:05.999Z,25.50
2018-12-20T19:53:34.376Z,20.23
2018-12-20T19:56:02.703Z,20.00
2018-12-20T19:58:31.068Z,22.47
2018-12-20T20:00:59.412Z,24.07
2018-12-20T20:03:34.063Z,23.20
2018-12-20T20:06:02.391Z,25.07
2018-12-20T20:08:30.714Z,22.53
2018-12-20T20:10:59.007Z,21.90
2018-12-20T20:16:20.496Z,30.80
2018-12-20T20:21:41.792Z,28.13
2018-12-20T20:24:10.132Z,25.73
2018-12-20T20:29:31.463Z,18.93
2018-12-20T20:31:59.842Z,17.53
2018-12-20T20:34:28.109Z,21.30
2018-12-20T20:36:56.518Z,19.20
2018-12-20T20:39:43.362Z,16.20
2018-12-20T20:42:11.610Z,16.47
2018-12-20T20:44:39.936Z,17.60
2018-12-20T20:47:08.387Z,25.23
2018-12-20T20:49:36.796Z,14.37
2018-12-20T20:52:05.129Z,15.33
2018-12-20T20:54:33.530Z,16.53
2018-12-20T20:57:01.801Z,19.30
2018-12-20T20:59:30.243Z,18.67
2018-12-20T21:01:58.571Z,21.60
2018-12-20T21:04:26.898Z,15.20
2018-12-20T21:06:55.288Z,19.40
2018-12-20T21:12:22.844Z,24.57
2018-12-20T21:14:52.370Z,28.40
2018-12-20T21:17:17.832Z,33.47
2018-12-20T21:19:46.197Z,22.97
2018-12-20T21:22:14.469Z,23.20
2018-12-20T21:24:42.868Z,21.57
2018-12-20T21:27:11.438Z,17.83
2018-12-20T21:29:39.841Z,20.20
2018-12-20T21:32:08.223Z,20.00
2018-12-20T21:34:36.749Z,19.37
2018-12-20T21:37:05.168Z,24.83
2018-12-20T21:39:33.536Z,22.77
2018-12-20T21:42:01.821Z,20.10
2018-12-20T21:44:30.135Z,24.43
2018-12-20T21:46:58.449Z,24.23
2018-12-20T21:49:26.773Z,24.60
2018-12-20T21:51:55.038Z,25.97
2018-12-20T21:54:23.307Z,22.80
2018-12-20T21:59:44.188Z,22.43
2018-12-20T22:05:05.700Z,19.83
2018-12-20T22:07:33.952Z,23.03
2018-12-20T22:10:02.255Z,19.33
2018-12-20T22:12:30.546Z,18.73
2018-12-20T22:14:58.846Z,24.23
2018-12-20T22:17:27.235Z,23.20
2018-12-20T22:19:58.683Z,21.63
2018-12-20T22:22:25.960Z,20.60
2018-12-20T22:24:54.227Z,21.53
2018-12-20T22:27:22.595Z,20.37
2018-12-20T22:29:51.098Z,26.07
2018-12-20T22:32:19.427Z,25.10
2018-12-20T22:34:47.765Z,21.23
2018-12-20T22:37:16.172Z,20.70
2018-12-20T22:39:44.467Z,21.47
2018-12-20T22:42:12.728Z,18.43
2018-12-20T22:44:40.983Z,19.57
2018-12-20T22:47:09.281Z,25.70
2018-12-20T22:49:37.618Z,23.83
2018-12-20T22:52:05.815Z,32.43
2018-12-20T22:54:34.181Z,33.13
2018-12-20T22:57:02.476Z,24.37
2018-12-20T22:59:30.780Z,24.10
2018-12-20T23:01:59.163Z,21.90
2018-12-20T23:04:27.428Z,23.97
2018-12-20T23:06:55.732Z,22.53
2018-12-20T23:09:24.086Z,21.17
2018-12-20T23:11:52.375Z,23.37
2018-12-20T23:14:20.761Z,23.43
2018-12-20T23:16:53.657Z,20.40
2018-12-20T23:19:19.817Z,19.60
2018-12-20T23:21:48.192Z,24.80
2018-12-20T23:24:16.512Z,22.67
2018-12-20T23:26:44.856Z,24.57
2018-12-20T23:29:13.159Z,21.30
2018-12-20T23:31:42.039Z,21.73
2018-12-20T23:34:10.394Z,22.00
2018-12-20T23:36:38.624Z,26.37
2018-12-20T23:39:08.886Z,20.43
2018-12-20T23:41:37.139Z,20.87
2018-12-20T23:44:05.462Z,22.63
2018-12-20T23:46:33.742Z,20.93
2018-12-20T23:49:02.019Z,21.83
2018-12-20T23:51:30.286Z,22.80
2018-12-20T23:53:58.573Z,22.47
2018-12-20T23:56:26.908Z,22.93
2018-12-20T23:58:55.137Z,25.27
